Smithfield - 24 Hour Table
Date & TimeSolar
Radiation
(W/m²)
Wind
Speed
(mph)
Wind
Direction
(degrees)
Air
Temperature
(°F)
Relative
Humidity
(%)
Precipitation
(inches)
Max
Wind
Speed
(mph)
2023/02/04 21:00 0 3.5 49 21.6 81 0.00 5.6
2023/02/04 20:00 0 1.8 46 21.2 83 0.00 3.8
2023/02/04 19:00 0 1.1 91 22.6 78 0.00 2.8
2023/02/04 18:00 15 3.0 97 22.8 77 0.00 6.7
2023/02/04 17:00 113 1.8 227 27.4 71 0.02 3.8
2023/02/04 16:00 315 2.3 236 29.0 62 0.05 5.3
2023/02/04 15:00 412 2.5 219 27.3 59 0.08 4.9
2023/02/04 14:00 532 2.6 224 28.2 64 0.05 6.7
2023/02/04 13:00 562 1.9 199 25.6 60 0.00 4.6
2023/02/04 12:00 485 2.4 226 19.6 67 0.00 4.2
2023/02/04 11:00 388 2.4 223 20.3 69 0.00 4.9
2023/02/04 10:00 266 0.4 60 21.5 63 0.00 3.1
2023/02/04 09:00 91 2.1 20 16.9 81 0.00 4.6
2023/02/04 08:00 6 3.3 65 15.6 88 0.00 5.3
2023/02/04 07:00 0 1.7 64 16.1 88 0.00 4.6
2023/02/04 06:00 0 3.3 76 16.9 82 0.00 7.1
2023/02/04 05:00 0 2.4 102 17.6 83 0.00 6.3
2023/02/04 04:00 0 2.4 62 17.0 83 0.00 7.1
2023/02/04 03:00 0 2.5 74 17.0 86 0.00 5.3
2023/02/04 02:00 0 2.5 348 22.2 81 0.00 5.3
2023/02/04 01:00 0 4.2 47 18.8 78 0.00 7.1
2023/02/04 00:00 0 2.7 119 14.7 84 0.00 5.6
2023/02/03 23:00 0 3.6 100 16.5 87 0.00 9.6
2023/02/03 22:00 0 3.9 55 21.9 76 0.00 7.1